Time;durP1;ratioP1;P1;durP2;ratioP2;P2;SDS_P1;SDS_P2;PMS_P1;PMS_P2;Temp;Humidity;BMP_temperature;BMP_pressure;BME280_temperature;BME280_humidity;BME280_pressure;Samples;Min_cycle;Max_cycle;Signal;HPM_P1;HPM_P2
2022/07/11 00:02:14;;;;;;;3.17;2.35;;;;;;;11.06;88.87;94385.62;1674935;83;21120;-53
2022/07/11 00:04:42;;;;;;;2.80;2.60;;;;;;;10.98;88.55;94385.75;1684809;83;21026;-53
2022/07/11 00:07:11;;;;;;;3.50;2.17;;;;;;;10.89;88.65;94394.02;1691777;83;21222;-53
2022/07/11 00:09:39;;;;;;;4.85;2.72;;;;;;;10.84;88.74;94391.84;1704006;83;21082;-52
2022/07/11 00:12:11;;;;;;;2.70;2.50;;;;;;;10.77;88.71;94394.16;1693061;83;21425;-52
2022/07/11 00:14:39;;;;;;;2.70;2.50;;;;;;;10.69;88.60;94390.78;1690541;83;21432;-53
2022/07/11 00:17:09;;;;;;;4.15;2.77;;;;;;;10.59;88.71;94396.09;1707898;83;21395;-54
2022/07/11 00:19:39;;;;;;;3.05;2.77;;;;;;;10.56;88.97;94395.01;1688400;83;21561;-54
2022/07/11 00:22:09;;;;;;;3.02;2.70;;;;;;;10.52;88.87;94399.14;1704642;83;20987;-52
2022/07/11 00:24:37;;;;;;;3.17;2.55;;;;;;;10.47;89.12;94394.22;1688065;83;21075;-53
2022/07/11 00:27:07;;;;;;;5.50;2.67;;;;;;;10.44;89.08;94396.51;1702342;83;21468;-53
2022/07/11 00:29:36;;;;;;;2.58;2.37;;;;;;;10.36;89.09;94399.41;1687395;83;21541;-53
2022/07/11 00:32:05;;;;;;;3.77;2.85;;;;;;;10.33;89.28;94401.69;1686955;84;21225;-53
2022/07/11 00:34:34;;;;;;;3.05;2.85;;;;;;;10.30;89.32;94399.83;1692969;83;21041;-54
2022/07/11 00:37:03;;;;;;;2.80;2.60;;;;;;;10.29;89.63;94398.29;1667600;83;21074;-54
2022/07/11 00:39:31;;;;;;;5.42;2.80;;;;;;;10.30;90.09;94395.70;1712093;83;21042;-55
2022/07/11 00:41:58;;;;;;;2.87;2.67;;;;;;;10.34;90.03;94396.34;1693981;83;20962;-53
2022/07/11 00:44:26;;;;;;;3.37;2.80;;;;;;;10.39;90.26;94406.11;1695133;84;21338;-53
2022/07/11 00:46:54;;;;;;;3.20;2.70;;;;;;;10.45;90.52;94402.16;1689326;83;21051;-53
2022/07/11 00:49:23;;;;;;;5.55;2.70;;;;;;;10.48;90.41;94408.13;1699312;83;21003;-53
2022/07/11 00:51:51;;;;;;;3.87;2.20;;;;;;;10.49;90.24;94405.56;1692213;83;21066;-53
2022/07/11 00:54:20;;;;;;;2.92;2.22;;;;;;;10.50;90.23;94402.97;1709597;83;21490;-54
2022/07/11 00:56:48;;;;;;;2.62;2.42;;;;;;;10.53;90.20;94403.42;1697280;83;21211;-54
2022/07/11 00:59:17;;;;;;;2.60;2.40;;;;;;;10.58;90.07;94405.56;1707601;83;20978;-53
2022/07/11 01:01:45;;;;;;;2.33;2.22;;;;;;;10.59;89.68;94402.97;1691846;83;20947;-54
2022/07/11 01:04:14;;;;;;;4.15;2.50;;;;;;;10.54;89.56;94399.45;1691203;83;21019;-54
2022/07/11 01:06:43;;;;;;;3.42;2.60;;;;;;;10.48;89.56;94401.25;1704245;83;20970;-54
2022/07/11 01:09:12;;;;;;;3.47;2.30;;;;;;;10.41;89.84;94401.55;1684241;83;21124;-54
2022/07/11 01:11:41;;;;;;;4.03;2.65;;;;;;;10.41;89.76;94402.33;1699636;83;21081;-52
2022/07/11 01:14:09;;;;;;;3.72;2.60;;;;;;;10.35;89.79;94404.75;1700592;83;20958;-54
2022/07/11 01:16:39;;;;;;;2.45;2.25;;;;;;;10.34;89.98;94403.97;1698445;83;21125;-53
2022/07/11 01:19:07;;;;;;;4.70;2.80;;;;;;;10.35;90.59;94402.75;1697485;83;20970;-53
2022/07/11 01:21:40;;;;;;;3.30;2.60;;;;;;;10.41;90.64;94398.80;1699747;83;21180;-53
2022/07/11 01:24:09;;;;;;;2.70;2.50;;;;;;;10.44;90.45;94400.64;1697146;83;20959;-53
2022/07/11 01:26:37;;;;;;;3.02;2.83;;;;;;;10.50;90.71;94401.59;1692913;83;20967;-52
2022/07/11 01:29:11;;;;;;;4.25;2.65;;;;;;;10.52;90.16;94402.64;1685315;83;21151;-53
2022/07/11 01:31:39;;;;;;;;;;;;;;;10.51;89.98;94403.12;1703134;83;21546;-53
2022/07/11 01:34:06;;;;;;;3.17;2.77;;;;;;;10.46;89.91;94403.69;1702770;83;21215;-53
2022/07/11 01:36:36;;;;;;;3.83;2.72;;;;;;;10.44;90.39;94402.02;1706939;83;21065;-53
2022/07/11 01:39:03;;;;;;;4.90;2.75;;;;;;;10.47;90.18;94414.84;1696698;83;21054;-54
2022/07/11 01:41:31;;;;;;;3.42;3.12;;;;;;;10.46;90.14;94414.70;1691941;83;21049;-54
2022/07/11 01:44:00;;;;;;;4.05;3.15;;;;;;;10.49;90.56;94411.06;1713371;83;21083;-52
2022/07/11 01:46:28;;;;;;;3.83;2.65;;;;;;;10.51;90.49;94412.13;1705491;83;21217;-52
2022/07/11 01:48:57;;;;;;;2.60;2.40;;;;;;;10.52;90.32;94410.15;1702048;83;21019;-53
2022/07/11 01:51:24;;;;;;;4.30;2.40;;;;;;;10.50;90.13;94416.72;1703894;83;21438;-53
2022/07/11 01:53:55;;;;;;;4.83;3.45;;;;;;;10.50;89.94;94412.59;1700350;83;21117;-53
2022/07/11 01:56:23;;;;;;;3.67;2.87;;;;;;;10.47;89.88;94416.22;1674168;84;21196;-53
2022/07/11 01:58:51;;;;;;;3.05;2.72;;;;;;;10.46;90.02;94412.72;1710970;83;21207;-53
2022/07/11 02:01:20;;;;;;;3.08;2.87;;;;;;;10.43;89.90;94411.48;1691782;83;21009;-53
2022/07/11 02:03:48;;;;;;;3.92;2.67;;;;;;;10.39;90.15;94417.73;1707251;83;21485;-53
2022/07/11 02:06:17;;;;;;;9.13;2.50;;;;;;;10.37;90.10;94406.43;1693638;83;20978;-53
2022/07/11 02:08:45;;;;;;;3.40;3.10;;;;;;;10.37;90.05;94409.18;1707935;83;21121;-53
2022/07/11 02:11:13;;;;;;;3.00;2.67;;;;;;;10.40;90.21;94409.64;1690405;83;21071;-53
2022/07/11 02:13:41;;;;;;;5.03;2.50;;;;;;;10.42;90.31;94409.36;1695456;83;21070;-52
2022/07/11 02:16:08;;;;;;;2.98;2.77;;;;;;;10.43;89.82;94407.36;1690584;83;20977;-53
2022/07/11 02:18:39;;;;;;;2.92;2.72;;;;;;;10.42;89.50;94411.33;1703524;83;21085;-53
2022/07/11 02:21:09;;;;;;;2.75;2.55;;;;;;;10.39;89.14;94419.11;1700225;83;21183;-53
2022/07/11 02:23:36;;;;;;;4.30;3.33;;;;;;;10.37;89.09;94417.43;1693054;83;21867;-53
2022/07/11 02:26:05;;;;;;;2.70;2.50;;;;;;;10.36;89.16;94417.28;1693706;83;20972;-54
2022/07/11 02:28:34;;;;;;;4.65;2.80;;;;;;;10.30;88.99;94416.31;1690591;83;21478;-53
2022/07/11 02:31:04;;;;;;;3.75;2.98;;;;;;;10.29;89.62;94421.06;1690466;83;21031;-53
2022/07/11 02:33:31;;;;;;;4.80;2.70;;;;;;;10.28;89.47;94417.38;1693868;83;21027;-54
2022/07/11 02:35:59;;;;;;;3.17;2.98;;;;;;;10.29;89.46;94423.03;1682066;84;21903;-53
2022/07/11 02:38:28;;;;;;;5.58;2.92;;;;;;;10.25;89.34;94423.79;1696950;83;21404;-53
2022/07/11 02:40:57;;;;;;;5.55;3.62;;;;;;;10.24;89.66;94419.52;1699653;83;20966;-54
2022/07/11 02:43:25;;;;;;;2.80;2.50;;;;;;;10.21;89.75;94421.20;1666466;83;20975;-53
2022/07/11 02:45:53;;;;;;;3.35;3.05;;;;;;;10.17;89.74;94421.17;1719579;83;21519;-53
2022/07/11 02:48:22;;;;;;;3.55;2.87;;;;;;;10.05;89.58;94428.30;1712896;83;21152;-54
2022/07/11 02:50:49;;;;;;;3.02;2.72;;;;;;;10.00;90.14;94432.95;1686126;83;21089;-54
2022/07/11 02:53:18;;;;;;;3.17;2.92;;;;;;;10.04;90.62;94431.49;1711991;83;21069;-53
2022/07/11 02:55:48;;;;;;;3.85;3.50;;;;;;;10.09;90.64;94425.40;1705879;83;21427;-53
2022/07/11 02:58:16;;;;;;;6.25;3.83;;;;;;;10.12;90.76;94432.14;1707242;83;21010;-53
2022/07/11 03:00:45;;;;;;;3.60;3.30;;;;;;;10.11;90.44;94429.23;1688817;83;21250;-53
2022/07/11 03:03:13;;;;;;;6.85;3.40;;;;;;;10.10;90.28;94431.05;1711086;83;21097;-54
2022/07/11 03:05:41;;;;;;;6.12;3.22;;;;;;;10.10;90.43;94426.92;1686874;83;21070;-53
2022/07/11 03:08:09;;;;;;;8.18;3.80;;;;;;;10.09;90.42;94422.65;1681020;84;21054;-53
2022/07/11 03:10:39;;;;;;;4.60;3.60;;;;;;;10.09;90.58;94422.65;1697868;83;20938;-53
2022/07/11 03:13:07;;;;;;;5.00;3.37;;;;;;;10.11;90.44;94425.11;1692524;83;21784;-53
2022/07/11 03:15:36;;;;;;;6.87;3.65;;;;;;;10.16;90.52;94428.64;1705536;83;21601;-53
2022/07/11 03:18:05;;;;;;;3.12;2.92;;;;;;;10.26;90.69;94414.33;1684859;83;21018;-53
2022/07/11 03:20:33;;;;;;;5.03;3.08;;;;;;;10.33;90.67;94409.94;1703926;83;21484;-53
2022/07/11 03:23:01;;;;;;;6.65;3.30;;;;;;;10.38;90.72;94420.33;1683292;83;21102;-54
2022/07/11 03:25:29;;;;;;;3.35;3.05;;;;;;;10.46;90.85;94418.22;1693000;83;21253;-54
2022/07/11 03:27:57;;;;;;;9.55;3.75;;;;;;;10.54;90.64;94415.95;1695567;83;21416;-54
2022/07/11 03:30:26;;;;;;;5.17;3.40;;;;;;;10.57;90.44;94408.16;1663501;83;21007;-53
2022/07/11 03:32:54;;;;;;;3.58;3.02;;;;;;;10.59;89.79;94414.75;1706693;83;21011;-55
2022/07/11 03:38:10;;;;;;;4.08;3.00;;;;;;;10.62;89.05;94417.19;1704502;83;21091;-55
2022/07/11 03:40:39;;;;;;;5.22;2.58;;;;;;;10.55;88.70;94426.48;1699325;83;20950;-54
2022/07/11 03:43:06;;;;;;;10.50;3.20;;;;;;;10.52;88.77;94424.65;1708704;83;21059;-53
2022/07/11 03:45:36;;;;;;;6.08;2.83;;;;;;;10.51;88.74;94418.99;1696349;83;21108;-53
2022/07/11 03:48:05;;;;;;;2.77;2.58;;;;;;;10.57;88.88;94421.30;1702516;83;21519;-53
2022/07/11 03:50:33;;;;;;;4.97;2.92;;;;;;;10.66;88.45;94422.70;1701338;83;21278;-53
2022/07/11 03:53:02;;;;;;;5.75;3.45;;;;;;;10.73;88.44;94423.19;1714566;83;21074;-53
2022/07/11 03:55:31;;;;;;;3.52;3.22;;;;;;;10.84;88.39;94421.37;1700000;83;20987;-53
2022/07/11 03:57:59;;;;;;;5.55;3.15;;;;;;;10.88;88.14;94422.76;1660204;83;20971;-53
2022/07/11 04:00:28;;;;;;;3.27;2.98;;;;;;;10.90;87.87;94416.78;1695373;84;20963;-53
2022/07/11 04:02:57;;;;;;;5.05;3.95;;;;;;;10.91;87.44;94424.59;1690641;83;21870;-54
2022/07/11 04:05:27;;;;;;;3.85;3.17;;;;;;;10.91;87.14;94416.34;1689497;83;21002;-53
2022/07/11 04:07:55;;;;;;;4.45;3.40;;;;;;;10.95;87.69;94420.33;1702939;83;21455;-54
2022/07/11 04:10:23;;;;;;;4.35;3.25;;;;;;;11.06;87.70;94419.25;1691783;83;21049;-53
2022/07/11 04:12:51;;;;;;;4.53;3.30;;;;;;;11.12;86.85;94413.28;1706516;83;21119;-53
2022/07/11 04:15:19;;;;;;;3.10;2.77;;;;;;;11.18;86.29;94419.09;1703745;83;21095;-53
2022/07/11 04:17:48;;;;;;;5.92;3.02;;;;;;;11.25;86.27;94413.30;1697736;83;20955;-54
2022/07/11 04:20:17;;;;;;;6.00;3.45;;;;;;;11.33;86.08;94420.02;1693383;83;21002;-54
2022/07/11 04:22:45;;;;;;;3.12;2.83;;;;;;;11.42;86.08;94409.02;1692340;83;21026;-54
2022/07/11 04:25:14;;;;;;;3.65;2.98;;;;;;;11.50;86.33;94412.22;1692363;84;21028;-54
2022/07/11 04:27:42;;;;;;;3.98;3.12;;;;;;;11.53;86.24;94420.94;1709361;83;21120;-54
2022/07/11 04:30:10;;;;;;;2.95;2.70;;;;;;;11.56;86.08;94418.67;1690907;83;21012;-54
2022/07/11 04:32:39;;;;;;;3.05;2.75;;;;;;;11.58;85.98;94418.37;1705352;83;21056;-55
2022/07/11 04:35:09;;;;;;;4.03;3.50;;;;;;;11.60;86.01;94420.05;1693934;83;20987;-56
2022/07/11 04:37:39;;;;;;;3.67;2.90;;;;;;;11.63;85.07;94414.20;1701662;83;21010;-56
2022/07/11 04:40:08;;;;;;;3.15;2.85;;;;;;;11.62;84.46;94417.59;1709522;83;21161;-54
2022/07/11 04:42:37;;;;;;;5.85;3.15;;;;;;;11.67;84.31;94415.59;1695670;83;21411;-53
2022/07/11 04:45:06;;;;;;;5.28;3.05;;;;;;;11.71;83.92;94420.32;1694457;83;20971;-54
2022/07/11 04:47:35;;;;;;;9.23;3.08;;;;;;;11.72;83.38;94425.23;1701285;83;21496;-56
2022/07/11 04:50:03;;;;;;;7.97;3.67;;;;;;;11.70;83.61;94422.92;1658038;83;21178;-56
2022/07/11 04:52:32;;;;;;;4.17;2.95;;;;;;;11.74;83.44;94422.14;1692853;83;22014;-54
2022/07/11 04:55:00;;;;;;;9.95;5.45;;;;;;;11.80;82.79;94417.56;1715049;83;20959;-55
2022/07/11 04:57:28;;;;;;;3.55;2.92;;;;;;;11.83;82.50;94423.52;1714071;83;21010;-57
2022/07/11 04:59:56;;;;;;;3.30;2.60;;;;;;;11.91;82.42;94428.85;1692904;84;20988;-56
2022/07/11 05:02:24;;;;;;;3.37;2.92;;;;;;;12.02;82.19;94428.36;1711469;83;20998;-56
2022/07/11 05:04:54;;;;;;;5.15;3.12;;;;;;;12.13;81.70;94425.30;1701537;83;21192;-55
2022/07/11 05:07:22;;;;;;;3.20;2.50;;;;;;;12.19;81.56;94428.94;1694111;83;20955;-55
2022/07/11 05:09:50;;;;;;;2.60;2.40;;;;;;;12.21;80.48;94431.22;1698284;83;20986;-55
2022/07/11 05:12:20;;;;;;;4.00;2.65;;;;;;;12.17;80.82;94427.27;1689986;83;21070;-55
2022/07/11 05:14:55;;;;;;;4.05;3.00;;;;;;;12.19;81.00;94429.54;1685072;83;21466;-57
2022/07/11 05:17:29;;;;;;;9.18;3.45;;;;;;;12.29;81.35;94432.43;1679521;84;21890;-60
2022/07/11 05:19:56;;;;;;;3.20;2.90;;;;;;;12.48;81.79;94436.02;1684985;83;21485;-55
2022/07/11 05:22:25;;;;;;;4.50;2.77;;;;;;;12.77;82.46;94436.20;1697702;83;21002;-57
2022/07/11 05:24:53;;;;;;;3.00;2.80;;;;;;;13.04;82.75;94423.02;1700537;83;20968;-56
2022/07/11 05:27:21;;;;;;;4.58;2.80;;;;;;;13.34;82.61;94428.80;1688960;83;21034;-57
2022/07/11 05:29:49;;;;;;;3.22;2.95;;;;;;;13.56;81.94;94427.84;1696294;83;21109;-55
2022/07/11 05:32:17;;;;;;;4.33;2.83;;;;;;;13.78;81.31;94431.02;1685263;83;20978;-56
2022/07/11 05:34:45;;;;;;;4.50;2.90;;;;;;;14.06;80.64;94430.91;1694239;83;21070;-55
2022/07/11 05:37:14;;;;;;;2.75;2.40;;;;;;;14.29;79.40;94434.23;1659799;84;21143;-55
2022/07/11 05:39:43;;;;;;;3.20;2.20;;;;;;;14.47;78.16;94436.15;1655177;85;21506;-57
2022/07/11 05:42:11;;;;;;;2.92;2.35;;;;;;;14.56;77.61;94437.44;1650958;83;21203;-55
2022/07/11 05:44:39;;;;;;;3.90;2.62;;;;;;;14.64;76.60;94430.89;1666485;84;21078;-57
2022/07/11 05:47:09;;;;;;;2.98;2.35;;;;;;;14.69;75.83;94429.59;1651222;84;21278;-55
2022/07/11 05:49:37;;;;;;;4.00;2.77;;;;;;;14.72;75.59;94428.63;1656325;84;21531;-57
2022/07/11 05:52:05;;;;;;;7.15;3.27;;;;;;;14.74;75.38;94430.29;1650984;84;21159;-58
2022/07/11 05:54:33;;;;;;;4.65;2.62;;;;;;;14.79;75.31;94430.98;1622977;86;21315;-56
2022/07/11 05:57:03;;;;;;;5.33;2.37;;;;;;;14.79;74.82;94428.86;1655980;83;21121;-59
2022/07/11 05:59:32;;;;;;;5.55;2.75;;;;;;;14.72;74.75;94428.63;1668287;83;21203;-55
2022/07/11 06:02:02;;;;;;;5.15;2.98;;;;;;;14.70;74.95;94433.89;1649756;84;21112;-70
2022/07/11 06:04:30;;;;;;;4.08;2.77;;;;;;;14.68;75.24;94425.91;1648122;85;21120;-60
2022/07/11 06:06:57;;;;;;;7.17;4.17;;;;;;;14.54;75.22;94431.63;1668365;83;21129;-60
2022/07/11 06:09:24;;;;;;;8.28;4.05;;;;;;;14.38;75.35;94430.59;1663520;84;20989;-57
2022/07/11 06:11:54;;;;;;;4.08;3.15;;;;;;;14.25;75.73;94434.27;1658176;83;21031;-57
2022/07/11 06:14:24;;;;;;;4.37;3.47;;;;;;;14.19;76.02;94432.78;1658684;83;21116;-59
2022/07/11 06:16:52;;;;;;;5.03;3.72;;;;;;;14.30;76.49;94435.75;1628316;85;21117;-57
2022/07/11 06:19:20;;;;;;;10.75;3.65;;;;;;;14.45;76.37;94430.97;1648539;84;21091;-58
2022/07/11 06:21:48;;;;;;;3.50;2.70;;;;;;;14.71;75.64;94431.86;1643037;85;21077;-55
2022/07/11 06:24:16;;;;;;;3.80;3.00;;;;;;;14.93;74.84;94434.34;1654358;84;21086;-55
2022/07/11 06:26:44;;;;;;;4.15;3.25;;;;;;;15.11;74.21;94430.55;1666160;83;21565;-56
2022/07/11 06:29:12;;;;;;;4.62;2.90;;;;;;;15.31;73.42;94438.29;1647355;84;21609;-56
2022/07/11 06:31:41;;;;;;;7.08;2.80;;;;;;;15.51;73.24;94429.97;1639687;84;21329;-59
2022/07/11 06:34:09;;;;;;;3.58;2.95;;;;;;;15.69;73.25;94436.61;1662602;84;21026;-56
2022/07/11 06:36:39;;;;;;;3.37;2.85;;;;;;;15.79;71.70;94426.12;1648314;84;20994;-58
2022/07/11 06:39:07;;;;;;;3.62;2.45;;;;;;;15.84;71.59;94422.64;1654228;85;21151;-58
2022/07/11 06:41:35;;;;;;;4.97;2.60;;;;;;;15.92;70.98;94422.36;1657737;84;22015;-58
2022/07/11 06:44:04;;;;;;;8.48;3.35;;;;;;;16.06;71.44;94419.47;1648804;84;21346;-57
2022/07/11 06:46:32;;;;;;;9.98;4.42;;;;;;;16.24;71.60;94414.97;1653682;84;21138;-56
2022/07/11 06:49:02;;;;;;;5.60;3.02;;;;;;;16.42;71.46;94420.21;1651245;85;21018;-62
2022/07/11 06:51:31;;;;;;;3.30;2.55;;;;;;;16.56;70.46;94417.29;1638119;85;21183;-59
2022/07/11 06:53:58;;;;;;;2.50;2.30;;;;;;;16.55;68.61;94416.41;1659526;84;20993;-58
2022/07/11 06:56:25;;;;;;;6.05;2.77;;;;;;;16.43;68.93;94418.95;1643206;84;21097;-59
2022/07/11 06:58:53;;;;;;;3.12;2.35;;;;;;;16.38;68.84;94419.68;1650350;85;21600;-56
2022/07/11 07:01:23;;;;;;;2.77;2.42;;;;;;;16.43;68.88;94414.79;1653852;84;21104;-58
2022/07/11 07:03:51;;;;;;;8.10;2.20;;;;;;;16.47;69.53;94412.55;1652423;84;21558;-57
2022/07/11 07:06:20;;;;;;;6.35;2.50;;;;;;;16.52;69.83;94407.68;1638119;85;21125;-57
2022/07/11 07:08:49;;;;;;;2.92;2.05;;;;;;;16.66;69.49;94405.37;1657468;84;21233;-57
2022/07/11 07:11:18;;;;;;;1.85;1.72;;;;;;;16.81;69.30;94405.37;1653127;84;21061;-56
2022/07/11 07:13:49;;;;;;;3.00;1.98;;;;;;;17.02;68.64;94409.54;1668052;83;21143;-57
2022/07/11 07:16:18;;;;;;;13.98;3.95;;;;;;;17.20;67.67;94398.63;1656789;84;21217;-56
2022/07/11 07:18:48;;;;;;;4.22;3.33;;;;;;;17.40;68.04;94408.23;1651011;84;20971;-57
2022/07/11 07:21:16;;;;;;;2.30;2.10;;;;;;;17.65;66.49;94401.78;1660042;84;21224;-56
2022/07/11 07:23:44;;;;;;;5.62;2.70;;;;;;;17.92;64.59;94398.30;1656794;83;21147;-57
2022/07/11 07:26:12;;;;;;;4.42;2.58;;;;;;;18.11;63.58;94401.52;1654538;83;21065;-58
2022/07/11 07:28:40;;;;;;;3.55;1.82;;;;;;;18.30;62.94;94402.58;1651614;84;21005;-57
2022/07/11 07:31:11;;;;;;;4.87;1.67;;;;;;;18.44;58.98;94412.08;1650630;84;21073;-56
2022/07/11 07:33:39;;;;;;;2.35;1.52;;;;;;;18.49;58.50;94411.31;1648770;83;21860;-59
2022/07/11 07:36:07;;;;;;;4.35;1.50;;;;;;;18.60;58.52;94407.15;1644584;85;21115;-58
2022/07/11 07:38:35;;;;;;;3.10;1.40;;;;;;;18.67;57.59;94410.06;1649785;83;21448;-58
2022/07/11 07:41:03;;;;;;;7.00;1.67;;;;;;;18.69;56.30;94409.70;1653838;84;21534;-58
2022/07/11 07:43:31;;;;;;;1.25;1.15;;;;;;;18.80;55.26;94406.88;1654089;84;21153;-59
2022/07/11 07:46:00;;;;;;;2.50;1.57;;;;;;;18.86;52.28;94408.28;1649910;84;21250;-62
2022/07/11 07:48:28;;;;;;;2.33;1.67;;;;;;;18.70;52.47;94398.67;1657930;84;22260;-54
2022/07/11 07:50:56;;;;;;;3.75;1.98;;;;;;;18.39;54.83;94411.45;1646919;84;21046;-59
2022/07/11 07:53:24;;;;;;;2.02;1.30;;;;;;;18.18;56.15;94408.63;1642306;85;21530;-56
2022/07/11 07:55:53;;;;;;;2.20;1.90;;;;;;;18.01;54.53;94412.00;1644942;84;38414;-58
2022/07/11 07:58:21;;;;;;;4.22;2.60;;;;;;;17.77;55.43;94406.87;1660297;83;22259;-53
2022/07/11 08:03:35;;;;;;;2.58;1.32;;;;;;;17.53;55.88;94405.77;1663939;84;21054;-56
2022/07/11 08:06:02;;;;;;;6.15;1.82;;;;;;;17.56;54.89;94391.63;1668428;83;21048;-65
2022/07/11 08:08:29;;;;;;;2.00;1.47;;;;;;;17.65;54.20;94396.21;1664820;83;21135;-66
2022/07/11 08:11:01;;;;;;;7.47;1.75;;;;;;;17.75;53.85;94399.66;1656813;84;21153;-64
2022/07/11 08:13:27;;;;;;;4.60;1.40;;;;;;;17.79;54.00;94392.47;1656066;84;21582;-66
2022/07/11 08:15:56;;;;;;;1.55;1.45;;;;;;;17.83;52.61;94391.59;1660792;84;20982;-61
2022/07/11 08:18:23;;;;;;;2.90;1.57;;;;;;;17.79;53.10;94394.61;1655278;84;21021;-58
2022/07/11 08:20:52;;;;;;;1.22;1.10;;;;;;;17.67;53.42;94393.69;1639143;84;21169;-57
2022/07/11 08:23:20;;;;;;;3.08;1.25;;;;;;;17.58;54.48;94400.84;1644496;84;21088;-57
2022/07/11 08:25:47;;;;;;;1.25;1.15;;;;;;;17.56;54.83;94397.81;1655718;84;21390;-63
2022/07/11 08:28:16;;;;;;;4.15;1.20;;;;;;;17.57;54.11;94399.33;1652246;84;21669;-58
2022/07/11 08:30:44;;;;;;;1.77;1.42;;;;;;;17.59;53.54;94398.20;1662224;84;21091;-57
2022/07/11 08:33:12;;;;;;;4.72;2.58;;;;;;;17.63;52.85;94400.88;1675364;84;20994;-60
2022/07/11 08:35:43;;;;;;;2.30;1.65;;;;;;;17.62;53.65;94404.17;1658316;84;21090;-56
2022/07/11 08:38:11;;;;;;;2.60;2.15;;;;;;;17.67;53.72;94399.25;1650214;84;21661;-65
2022/07/11 08:40:43;;;;;;;6.28;2.10;;;;;;;17.78;53.73;94396.48;1643359;85;21636;-57
2022/07/11 08:43:21;;;;;;;3.27;1.82;;;;;;;17.87;53.23;94393.48;1626342;87;21559;-60
2022/07/11 08:45:48;;;;;;;7.78;1.90;;;;;;;17.93;53.47;94390.85;1618441;85;21413;-56
2022/07/11 08:48:16;;;;;;;2.87;1.72;;;;;;;18.01;53.26;94391.13;1645072;84;21107;-57
2022/07/11 08:50:44;;;;;;;3.47;1.70;;;;;;;18.06;52.26;94390.36;1642898;86;21116;-62
2022/07/11 08:53:11;;;;;;;5.53;1.40;;;;;;;18.08;51.40;94382.27;1651880;84;21116;-56
2022/07/11 08:55:40;;;;;;;2.42;1.90;;;;;;;18.13;50.17;94383.02;1658419;84;21019;-60
2022/07/11 08:58:09;;;;;;;3.87;1.55;;;;;;;18.21;51.34;94382.67;1643088;83;20982;-60
2022/07/11 09:00:38;;;;;;;1.92;1.00;;;;;;;18.36;50.80;94390.19;1656439;84;21183;-56
2022/07/11 09:03:07;;;;;;;1.72;1.25;;;;;;;18.65;51.50;94392.45;1660023;84;21678;-56
2022/07/11 09:05:35;;;;;;;4.72;1.87;;;;;;;19.02;50.17;94390.77;1652832;85;21567;-58
2022/07/11 09:08:03;;;;;;;4.35;1.30;;;;;;;19.28;50.33;94387.82;1636880;85;21109;-57
2022/07/11 09:10:32;;;;;;;1.00;0.90;;;;;;;19.53;49.33;94391.55;1671137;84;21505;-56
2022/07/11 09:13:06;;;;;;;2.70;1.12;;;;;;;19.69;47.11;94394.88;1657218;84;21365;-56
2022/07/11 09:15:44;;;;;;;3.37;1.20;;;;;;;19.68;47.17;94389.95;1662185;85;21085;-58
2022/07/11 09:18:33;;;;;;;1.20;1.10;;;;;;;19.68;45.21;94394.75;1643973;85;21202;-53
2022/07/11 09:26:48;;;;;;;0.95;0.85;;;;;;;19.62;42.91;94391.23;1657401;84;21109;-55
2022/07/11 09:29:18;;;;;;;8.03;1.62;;;;;;;19.60;43.05;94386.16;1656557;84;21074;-55
2022/07/11 09:31:48;;;;;;;2.52;1.35;;;;;;;19.59;43.44;94388.83;1653884;85;21064;-59
2022/07/11 09:34:19;;;;;;;3.22;1.12;;;;;;;19.66;44.30;94395.28;1638815;85;21102;-63
2022/07/11 09:36:52;;;;;;;2.33;0.88;;;;;;;19.81;44.99;94394.34;1652384;85;21240;-57
2022/07/11 09:39:21;;;;;;;1.92;1.32;;;;;;;20.04;42.75;94375.44;1647797;84;21232;-57
2022/07/11 09:41:51;;;;;;;2.08;0.90;;;;;;;20.17;44.54;94381.32;1646864;84;21137;-56
2022/07/11 09:44:33;;;;;;;0.90;0.80;;;;;;;20.25;42.24;94385.72;1665621;83;21064;-55
2022/07/11 09:46:59;;;;;;;1.50;0.90;;;;;;;20.24;42.55;94382.18;1654602;83;21104;-59
2022/07/11 09:49:34;;;;;;;1.63;0.90;;;;;;;20.42;42.83;94377.98;1658598;85;21157;-60
2022/07/11 09:52:10;;;;;;;1.10;0.80;;;;;;;20.68;39.47;94381.06;1656810;85;21125;-59
2022/07/11 09:54:59;;;;;;;0.80;0.80;;;;;;;20.72;37.87;94380.91;1651669;85;21075;-57
2022/07/11 09:57:35;;;;;;;0.80;0.70;;;;;;;20.62;39.28;94383.16;1648256;85;21144;-59
2022/07/11 10:00:08;;;;;;;1.75;0.78;;;;;;;20.56;40.46;94385.25;1648473;85;21062;-57
2022/07/11 10:02:38;;;;;;;1.30;0.90;;;;;;;20.50;40.37;94373.33;1634541;85;21102;-57
2022/07/11 10:05:07;;;;;;;5.58;1.30;;;;;;;20.54;41.48;94378.77;1641491;84;21095;-55
2022/07/11 10:07:36;;;;;;;2.87;1.22;;;;;;;20.54;40.04;94384.35;1658867;84;21058;-57
2022/07/11 10:10:06;;;;;;;3.40;1.22;;;;;;;20.47;40.61;94377.94;1650902;84;21057;-57
2022/07/11 10:12:34;;;;;;;1.10;0.88;;;;;;;20.45;41.87;94386.72;1650026;83;21076;-57
2022/07/11 10:15:06;;;;;;;2.00;1.00;;;;;;;20.45;42.42;94372.12;1674749;83;21533;-55
2022/07/11 10:18:06;;;;;;;1.95;1.47;;;;;;;20.51;41.69;94377.64;1682576;84;21898;-56
2022/07/11 10:20:56;;;;;;;1.67;1.25;;;;;;;20.60;39.81;94374.53;1660751;83;21540;-58
2022/07/11 10:23:38;;;;;;;1.32;0.90;;;;;;;20.65;40.18;94369.52;1659919;84;21093;-55
2022/07/11 10:26:30;;;;;;;7.30;1.35;;;;;;;20.69;39.70;94365.17;1642258;84;20997;-59
2022/07/11 10:29:07;;;;;;;2.67;0.90;;;;;;;20.71;40.57;94368.86;1620708;85;21806;-59
2022/07/11 10:31:35;;;;;;;0.75;0.62;;;;;;;20.65;40.66;94366.11;1647945;86;21442;-56
2022/07/11 10:34:10;;;;;;;4.85;1.87;;;;;;;20.53;40.50;94371.66;1625252;84;21613;-57
2022/07/11 10:36:41;;;;;;;1.20;1.10;;;;;;;20.49;40.19;94360.64;1651156;84;21219;-56
2022/07/11 10:39:27;;;;;;;3.22;1.00;;;;;;;20.70;40.82;94362.49;1640464;86;21458;-55
2022/07/11 10:41:58;;;;;;;1.20;1.02;;;;;;;21.00;41.01;94358.30;1641145;86;21613;-54
2022/07/11 10:44:27;;;;;;;5.20;0.90;;;;;;;21.14;40.52;94367.68;1644095;85;21247;-56
2022/07/11 10:46:57;;;;;;;2.00;0.98;;;;;;;20.99;41.28;94384.13;1641328;85;21098;-56
2022/07/11 10:49:48;;;;;;;1.95;0.80;;;;;;;20.69;42.17;94389.56;1665005;85;21072;-58
2022/07/11 10:52:18;;;;;;;2.47;0.90;;;;;;;20.38;43.14;94416.63;1658052;83;21227;-57
2022/07/11 10:55:20;;;;;;;4.15;1.10;;;;;;;19.87;43.63;94429.19;1606788;85;21246;-57
2022/07/11 10:58:25;;;;;;;5.72;1.12;;;;;;;19.48;45.34;94440.52;1629443;83;21983;-58
2022/07/11 11:01:11;;;;;;;0.93;0.78;;;;;;;19.01;46.99;94444.37;1661959;85;21084;-56
2022/07/11 11:03:41;;;;;;;2.80;0.72;;;;;;;18.54;47.54;94459.34;1653762;84;21054;-58
2022/07/11 11:06:09;;;;;;;0.78;0.78;;;;;;;18.04;47.96;94457.67;1642566;84;21048;-57
2022/07/11 11:08:42;;;;;;;0.93;0.90;;;;;;;17.65;49.26;94465.13;1657588;84;21003;-58
2022/07/11 11:11:35;;;;;;;2.08;0.90;;;;;;;17.48;49.50;94464.28;1647107;84;21256;-57
2022/07/11 11:14:19;;;;;;;2.30;1.00;;;;;;;17.33;49.85;94459.52;1662633;84;21062;-57
2022/07/11 11:16:49;;;;;;;3.35;2.10;;;;;;;17.36;51.50;94451.59;1670990;84;21166;-56
2022/07/11 11:19:50;;;;;;;1.27;1.17;;;;;;;17.83;53.78;94444.47;1676734;83;21097;-54
2022/07/11 11:22:20;;;;;;;3.10;0.90;;;;;;;18.50;52.64;94439.95;1656891;84;21103;-56
2022/07/11 11:24:53;;;;;;;0.98;0.72;;;;;;;19.17;49.44;94440.09;1659169;85;21190;-60
2022/07/11 11:27:26;;;;;;;1.07;0.90;;;;;;;19.99;46.85;94450.98;1646950;84;21141;-54
2022/07/11 11:29:56;;;;;;;1.55;0.95;;;;;;;20.57;44.26;94441.27;1654511;83;21075;-56
2022/07/11 11:32:34;;;;;;;1.00;0.82;;;;;;;20.69;46.38;94435.70;1651464;84;21030;-51
2022/07/11 11:35:08;;;;;;;12.25;1.25;;;;;;;20.53;45.36;94444.33;1646393;84;21429;-60
2022/07/11 11:37:37;;;;;;;2.77;0.80;;;;;;;20.42;45.23;94450.64;1641836;85;21361;-56
2022/07/11 11:40:06;;;;;;;1.00;0.50;;;;;;;20.44;45.56;94449.48;1627480;84;21087;-55
2022/07/11 11:42:34;;;;;;;1.37;0.90;;;;;;;20.46;45.49;94446.30;1657955;84;21407;-54
2022/07/11 11:45:07;;;;;;;0.85;0.70;;;;;;;20.42;45.39;94448.62;1661231;84;21115;-55
2022/07/11 11:47:36;;;;;;;3.35;0.98;;;;;;;20.37;44.93;94447.98;1661729;84;20966;-55
2022/07/11 11:50:07;;;;;;;2.02;0.72;;;;;;;20.41;44.75;94452.66;1630734;84;21246;-55
2022/07/11 11:52:36;;;;;;;7.08;1.45;;;;;;;20.44;45.34;94450.88;1648752;83;21184;-55
2022/07/11 11:55:04;;;;;;;2.33;1.17;;;;;;;20.90;45.54;94450.19;1665856;83;21053;-55
2022/07/11 11:57:32;;;;;;;1.65;0.80;;;;;;;21.45;44.22;94448.93;1622104;85;22368;-54
2022/07/11 12:00:03;;;;;;;11.83;2.27;;;;;;;21.81;42.84;94444.08;1656129;84;21047;-56